sensor_id;sensor_type;location;lat;lon;timestamp;pressure;altitude;pressure_sealevel;temperature;humidity
62847;BME280;49477;35.676;139.586;2023-07-16T00:00:42;100484.94;;;35.06;37.08
62847;BME280;49477;35.676;139.586;2023-07-16T00:03:12;100479.35;;;35.00;36.91
62847;BME280;49477;35.676;139.586;2023-07-16T00:05:41;100476.78;;;34.27;36.74
62847;BME280;49477;35.676;139.586;2023-07-16T00:08:11;100477.96;;;34.76;36.46
62847;BME280;49477;35.676;139.586;2023-07-16T00:10:40;100479.56;;;35.17;35.99
62847;BME280;49477;35.676;139.586;2023-07-16T00:13:10;100481.38;;;35.00;36.21
62847;BME280;49477;35.676;139.586;2023-07-16T00:15:39;100483.51;;;35.01;36.38
62847;BME280;49477;35.676;139.586;2023-07-16T00:18:09;100485.05;;;35.58;36.36
62847;BME280;49477;35.676;139.586;2023-07-16T00:20:38;100483.50;;;35.12;36.16
62847;BME280;49477;35.676;139.586;2023-07-16T00:23:08;100477.45;;;34.61;36.34
62847;BME280;49477;35.676;139.586;2023-07-16T00:25:38;100475.88;;;34.67;36.47
62847;BME280;49477;35.676;139.586;2023-07-16T00:28:07;100475.63;;;35.21;35.83
62847;BME280;49477;35.676;139.586;2023-07-16T00:30:36;100479.65;;;35.26;35.52
62847;BME280;49477;35.676;139.586;2023-07-16T00:33:06;100472.52;;;34.75;36.10
62847;BME280;49477;35.676;139.586;2023-07-16T00:35:36;100469.61;;;35.58;35.52
62847;BME280;49477;35.676;139.586;2023-07-16T00:38:05;100467.79;;;35.70;35.38
62847;BME280;49477;35.676;139.586;2023-07-16T00:40:34;100466.46;;;36.01;35.36
62847;BME280;49477;35.676;139.586;2023-07-16T00:43:04;100465.49;;;36.07;35.38
62847;BME280;49477;35.676;139.586;2023-07-16T00:45:33;100469.61;;;35.70;35.41
62847;BME280;49477;35.676;139.586;2023-07-16T00:48:04;100468.16;;;35.69;35.50
62847;BME280;49477;35.676;139.586;2023-07-16T00:50:35;100469.18;;;35.78;35.41
62847;BME280;49477;35.676;139.586;2023-07-16T00:53:05;100468.42;;;35.56;35.48
62847;BME280;49477;35.676;139.586;2023-07-16T00:55:35;100471.69;;;35.88;35.48
62847;BME280;49477;35.676;139.586;2023-07-16T00:58:06;100474.24;;;35.91;35.29
62847;BME280;49477;35.676;139.586;2023-07-16T01:00:38;100475.29;;;35.98;35.20
62847;BME280;49477;35.676;139.586;2023-07-16T01:03:09;100473.43;;;36.01;35.16
62847;BME280;49477;35.676;139.586;2023-07-16T01:05:49;100473.84;;;35.85;35.12
62847;BME280;49477;35.676;139.586;2023-07-16T01:08:25;100470.40;;;35.59;35.00
62847;BME280;49477;35.676;139.586;2023-07-16T01:10:56;100470.12;;;36.08;34.90
62847;BME280;49477;35.676;139.586;2023-07-16T01:13:25;100470.08;;;35.84;34.53
62847;BME280;49477;35.676;139.586;2023-07-16T01:15:55;100468.19;;;36.13;34.80
62847;BME280;49477;35.676;139.586;2023-07-16T01:18:24;100465.66;;;35.88;34.79
62847;BME280;49477;35.676;139.586;2023-07-16T01:20:54;100464.28;;;36.05;34.68
62847;BME280;49477;35.676;139.586;2023-07-16T01:23:38;100460.17;;;35.69;34.38
62847;BME280;49477;35.676;139.586;2023-07-16T01:26:19;100464.37;;;36.39;34.27
62847;BME280;49477;35.676;139.586;2023-07-16T01:29:09;100464.41;;;36.30;33.82
62847;BME280;49477;35.676;139.586;2023-07-16T01:31:39;100461.86;;;36.19;34.31
62847;BME280;49477;35.676;139.586;2023-07-16T01:34:10;100460.90;;;36.24;34.38
62847;BME280;49477;35.676;139.586;2023-07-16T01:36:40;100463.43;;;36.22;34.10
62847;BME280;49477;35.676;139.586;2023-07-16T01:39:10;100457.92;;;36.43;33.94
62847;BME280;49477;35.676;139.586;2023-07-16T01:41:39;100456.37;;;36.50;33.72
62847;BME280;49477;35.676;139.586;2023-07-16T01:44:09;100458.68;;;36.64;33.65
62847;BME280;49477;35.676;139.586;2023-07-16T01:46:38;100457.30;;;36.87;33.79
62847;BME280;49477;35.676;139.586;2023-07-16T01:49:08;100450.04;;;36.47;33.73
62847;BME280;49477;35.676;139.586;2023-07-16T01:51:37;100449.43;;;36.56;33.68
62847;BME280;49477;35.676;139.586;2023-07-16T01:54:07;100443.69;;;36.80;33.87
62847;BME280;49477;35.676;139.586;2023-07-16T01:56:36;100443.48;;;36.79;34.01
62847;BME280;49477;35.676;139.586;2023-07-16T01:59:06;100448.71;;;36.84;34.11
62847;BME280;49477;35.676;139.586;2023-07-16T02:01:35;100445.37;;;36.80;33.64
62847;BME280;49477;35.676;139.586;2023-07-16T02:04:04;100442.93;;;36.60;33.35
62847;BME280;49477;35.676;139.586;2023-07-16T02:06:33;100440.77;;;36.54;33.57
62847;BME280;49477;35.676;139.586;2023-07-16T02:09:03;100439.02;;;36.65;33.49
62847;BME280;49477;35.676;139.586;2023-07-16T02:11:33;100437.12;;;36.73;33.47
62847;BME280;49477;35.676;139.586;2023-07-16T02:14:02;100438.15;;;36.77;33.58
62847;BME280;49477;35.676;139.586;2023-07-16T02:16:31;100440.55;;;36.70;34.04
62847;BME280;49477;35.676;139.586;2023-07-16T02:19:00;100440.50;;;36.81;33.96
62847;BME280;49477;35.676;139.586;2023-07-16T02:21:29;100434.59;;;36.57;33.44
62847;BME280;49477;35.676;139.586;2023-07-16T02:23:58;100434.57;;;37.02;33.19
62847;BME280;49477;35.676;139.586;2023-07-16T02:26:27;100439.16;;;36.87;33.87
62847;BME280;49477;35.676;139.586;2023-07-16T02:28:57;100433.79;;;37.05;33.58
62847;BME280;49477;35.676;139.586;2023-07-16T02:31:27;100430.88;;;36.60;33.65
62847;BME280;49477;35.676;139.586;2023-07-16T02:33:56;100427.91;;;37.31;33.66
62847;BME280;49477;35.676;139.586;2023-07-16T02:36:26;100427.55;;;37.04;33.62
62847;BME280;49477;35.676;139.586;2023-07-16T02:38:55;100424.56;;;37.19;33.35
62847;BME280;49477;35.676;139.586;2023-07-16T02:41:25;100424.54;;;36.83;33.08
62847;BME280;49477;35.676;139.586;2023-07-16T02:44:03;100418.67;;;37.48;32.87
62847;BME280;49477;35.676;139.586;2023-07-16T02:46:32;100417.72;;;37.20;32.66
62847;BME280;49477;35.676;139.586;2023-07-16T02:49:02;100418.08;;;37.04;33.19
62847;BME280;49477;35.676;139.586;2023-07-16T02:51:31;100418.98;;;36.99;33.37
62847;BME280;49477;35.676;139.586;2023-07-16T02:54:01;100415.57;;;37.20;33.44
62847;BME280;49477;35.676;139.586;2023-07-16T02:56:30;100416.27;;;37.54;33.41
62847;BME280;49477;35.676;139.586;2023-07-16T02:58:59;100416.25;;;37.64;33.44
62847;BME280;49477;35.676;139.586;2023-07-16T03:01:29;100410.91;;;37.53;33.40
62847;BME280;49477;35.676;139.586;2023-07-16T03:03:58;100407.45;;;37.24;33.24
62847;BME280;49477;35.676;139.586;2023-07-16T03:06:27;100409.70;;;37.69;33.09
62847;BME280;49477;35.676;139.586;2023-07-16T03:08:57;100407.44;;;37.70;33.10
62847;BME280;49477;35.676;139.586;2023-07-16T03:11:26;100401.78;;;37.54;32.82
62847;BME280;49477;35.676;139.586;2023-07-16T03:13:56;100400.80;;;37.94;32.72
62847;BME280;49477;35.676;139.586;2023-07-16T03:16:25;100399.57;;;37.64;32.97
62847;BME280;49477;35.676;139.586;2023-07-16T03:18:55;100400.11;;;37.72;33.03
62847;BME280;49477;35.676;139.586;2023-07-16T03:21:24;100400.02;;;37.76;33.19
62847;BME280;49477;35.676;139.586;2023-07-16T03:23:54;100395.26;;;37.90;33.06
62847;BME280;49477;35.676;139.586;2023-07-16T03:26:23;100395.91;;;37.33;33.18
62847;BME280;49477;35.676;139.586;2023-07-16T03:28:53;100402.63;;;37.81;32.99
62847;BME280;49477;35.676;139.586;2023-07-16T03:31:22;100399.58;;;37.75;32.91
62847;BME280;49477;35.676;139.586;2023-07-16T03:33:52;100395.77;;;37.95;32.82
62847;BME280;49477;35.676;139.586;2023-07-16T03:36:21;100390.46;;;38.02;32.47
62847;BME280;49477;35.676;139.586;2023-07-16T03:38:50;100383.06;;;38.06;32.56
62847;BME280;49477;35.676;139.586;2023-07-16T03:41:20;100385.20;;;37.89;32.42
62847;BME280;49477;35.676;139.586;2023-07-16T03:43:50;100380.77;;;38.15;32.63
62847;BME280;49477;35.676;139.586;2023-07-16T03:46:19;100382.39;;;37.95;32.42
62847;BME280;49477;35.676;139.586;2023-07-16T03:48:49;100380.37;;;38.06;33.01
62847;BME280;49477;35.676;139.586;2023-07-16T03:51:18;100380.06;;;37.69;32.77
62847;BME280;49477;35.676;139.586;2023-07-16T03:53:47;100384.11;;;38.16;32.97
62847;BME280;49477;35.676;139.586;2023-07-16T03:56:16;100383.97;;;37.90;33.12
62847;BME280;49477;35.676;139.586;2023-07-16T03:58:46;100384.65;;;38.17;33.09
62847;BME280;49477;35.676;139.586;2023-07-16T04:01:14;100381.29;;;38.06;33.18
62847;BME280;49477;35.676;139.586;2023-07-16T04:03:44;100378.32;;;38.16;33.04
62847;BME280;49477;35.676;139.586;2023-07-16T04:06:14;100374.52;;;38.11;33.14
62847;BME280;49477;35.676;139.586;2023-07-16T04:08:43;100372.29;;;37.99;33.20
62847;BME280;49477;35.676;139.586;2023-07-16T04:11:12;100366.96;;;38.05;33.23
62847;BME280;49477;35.676;139.586;2023-07-16T04:13:41;100360.08;;;38.16;33.27
62847;BME280;49477;35.676;139.586;2023-07-16T04:16:11;100364.21;;;38.11;33.23
62847;BME280;49477;35.676;139.586;2023-07-16T04:18:40;100368.71;;;37.79;33.43
62847;BME280;49477;35.676;139.586;2023-07-16T04:21:09;100369.15;;;37.78;33.67
62847;BME280;49477;35.676;139.586;2023-07-16T04:23:38;100369.12;;;38.02;33.28
62847;BME280;49477;35.676;139.586;2023-07-16T04:26:08;100368.69;;;38.01;33.58
62847;BME280;49477;35.676;139.586;2023-07-16T04:28:37;100365.77;;;38.12;33.48
62847;BME280;49477;35.676;139.586;2023-07-16T04:31:07;100366.25;;;38.17;33.42
62847;BME280;49477;35.676;139.586;2023-07-16T04:33:36;100362.16;;;37.68;33.92
62847;BME280;49477;35.676;139.586;2023-07-16T04:36:06;100369.43;;;37.90;33.73
62847;BME280;49477;35.676;139.586;2023-07-16T04:38:34;100368.65;;;37.83;33.90
62847;BME280;49477;35.676;139.586;2023-07-16T04:41:04;100370.90;;;38.08;33.35
62847;BME280;49477;35.676;139.586;2023-07-16T04:43:33;100376.45;;;37.90;33.46
62847;BME280;49477;35.676;139.586;2023-07-16T04:46:03;100375.26;;;38.06;33.47
62847;BME280;49477;35.676;139.586;2023-07-16T04:48:31;100370.77;;;38.19;33.31
62847;BME280;49477;35.676;139.586;2023-07-16T04:51:01;100370.52;;;37.98;33.38
62847;BME280;49477;35.676;139.586;2023-07-16T04:53:30;100370.98;;;37.69;33.87
62847;BME280;49477;35.676;139.586;2023-07-16T04:55:59;100373.23;;;38.07;33.66
62847;BME280;49477;35.676;139.586;2023-07-16T04:58:28;100370.55;;;37.80;33.68
62847;BME280;49477;35.676;139.586;2023-07-16T05:00:58;100366.76;;;37.94;33.87
62847;BME280;49477;35.676;139.586;2023-07-16T05:03:27;100364.24;;;38.06;33.72
62847;BME280;49477;35.676;139.586;2023-07-16T05:05:57;100355.89;;;38.35;33.42
62847;BME280;49477;35.676;139.586;2023-07-16T05:08:26;100357.94;;;38.34;33.58
62847;BME280;49477;35.676;139.586;2023-07-16T05:10:56;100358.27;;;38.15;33.45
62847;BME280;49477;35.676;139.586;2023-07-16T05:13:25;100360.20;;;38.17;33.57
62847;BME280;49477;35.676;139.586;2023-07-16T05:15:55;100366.51;;;37.89;34.11
62847;BME280;49477;35.676;139.586;2023-07-16T05:18:24;100367.37;;;38.04;34.10
62847;BME280;49477;35.676;139.586;2023-07-16T05:20:53;100358.44;;;38.32;33.79
62847;BME280;49477;35.676;139.586;2023-07-16T05:23:23;100365.66;;;37.88;33.68
62847;BME280;49477;35.676;139.586;2023-07-16T05:25:52;100359.68;;;38.48;33.66
62847;BME280;49477;35.676;139.586;2023-07-16T05:28:24;100361.08;;;38.16;33.71
62847;BME280;49477;35.676;139.586;2023-07-16T05:30:59;100361.80;;;38.38;33.78
62847;BME280;49477;35.676;139.586;2023-07-16T05:33:29;100361.54;;;38.40;33.81
62847;BME280;49477;35.676;139.586;2023-07-16T05:35:58;100364.35;;;38.58;33.52
62847;BME280;49477;35.676;139.586;2023-07-16T05:38:28;100357.04;;;38.53;33.86
62847;BME280;49477;35.676;139.586;2023-07-16T05:41:02;100361.30;;;38.33;33.58
62847;BME280;49477;35.676;139.586;2023-07-16T05:43:32;100359.46;;;38.70;33.29
62847;BME280;49477;35.676;139.586;2023-07-16T05:46:01;100354.27;;;38.35;33.49
62847;BME280;49477;35.676;139.586;2023-07-16T05:48:31;100359.53;;;38.36;33.35
62847;BME280;49477;35.676;139.586;2023-07-16T05:51:00;100359.49;;;38.23;33.17
62847;BME280;49477;35.676;139.586;2023-07-16T05:53:29;100357.42;;;38.74;33.04
62847;BME280;49477;35.676;139.586;2023-07-16T05:55:58;100354.06;;;38.62;32.82
62847;BME280;49477;35.676;139.586;2023-07-16T05:58:28;100355.78;;;38.63;32.92
62847;BME280;49477;35.676;139.586;2023-07-16T06:00:57;100360.92;;;38.78;33.10
62847;BME280;49477;35.676;139.586;2023-07-16T06:03:27;100355.03;;;38.33;32.94
62847;BME280;49477;35.676;139.586;2023-07-16T06:05:56;100357.04;;;38.04;33.07
62847;BME280;49477;35.676;139.586;2023-07-16T06:08:26;100355.28;;;38.31;32.92
62847;BME280;49477;35.676;139.586;2023-07-16T06:10:56;100358.65;;;38.54;32.85
62847;BME280;49477;35.676;139.586;2023-07-16T06:13:25;100363.64;;;38.56;32.85
62847;BME280;49477;35.676;139.586;2023-07-16T06:15:54;100355.83;;;38.46;32.67
62847;BME280;49477;35.676;139.586;2023-07-16T06:18:24;100361.80;;;38.38;32.73
62847;BME280;49477;35.676;139.586;2023-07-16T06:20:53;100360.12;;;39.16;32.60
62847;BME280;49477;35.676;139.586;2023-07-16T06:23:22;100353.74;;;38.59;32.53
62847;BME280;49477;35.676;139.586;2023-07-16T06:25:55;100350.93;;;38.82;32.41
62847;BME280;49477;35.676;139.586;2023-07-16T06:28:25;100344.58;;;38.51;32.36
62847;BME280;49477;35.676;139.586;2023-07-16T06:30:54;100345.83;;;38.58;32.42
62847;BME280;49477;35.676;139.586;2023-07-16T06:33:24;100350.34;;;38.61;32.53
62847;BME280;49477;35.676;139.586;2023-07-16T06:35:53;100351.83;;;38.72;32.48
62847;BME280;49477;35.676;139.586;2023-07-16T06:38:23;100352.00;;;38.84;32.18
62847;BME280;49477;35.676;139.586;2023-07-16T06:40:53;100344.19;;;38.94;31.60
62847;BME280;49477;35.676;139.586;2023-07-16T06:43:22;100344.17;;;38.96;32.09
62847;BME280;49477;35.676;139.586;2023-07-16T06:45:52;100343.92;;;38.83;31.39
62847;BME280;49477;35.676;139.586;2023-07-16T06:48:21;100343.02;;;38.99;31.68
62847;BME280;49477;35.676;139.586;2023-07-16T06:50:51;100342.37;;;38.95;31.42
62847;BME280;49477;35.676;139.586;2023-07-16T06:53:20;100339.98;;;39.22;31.78
62847;BME280;49477;35.676;139.586;2023-07-16T06:55:50;100339.53;;;38.91;31.44
62847;BME280;49477;35.676;139.586;2023-07-16T06:58:19;100340.39;;;38.51;31.79
62847;BME280;49477;35.676;139.586;2023-07-16T07:00:48;100339.64;;;39.37;31.69
62847;BME280;49477;35.676;139.586;2023-07-16T07:03:17;100347.31;;;38.88;31.40
62847;BME280;49477;35.676;139.586;2023-07-16T07:05:47;100346.07;;;39.22;31.31
62847;BME280;49477;35.676;139.586;2023-07-16T07:08:16;100351.22;;;39.38;31.13
62847;BME280;49477;35.676;139.586;2023-07-16T07:10:46;100348.42;;;39.47;31.15
62847;BME280;49477;35.676;139.586;2023-07-16T07:13:15;100345.07;;;39.43;31.22
62847;BME280;49477;35.676;139.586;2023-07-16T07:15:44;100343.29;;;39.44;31.01
62847;BME280;49477;35.676;139.586;2023-07-16T07:18:14;100345.51;;;38.92;30.87
62847;BME280;49477;35.676;139.586;2023-07-16T07:20:43;100341.69;;;39.32;31.16
62847;BME280;49477;35.676;139.586;2023-07-16T07:23:14;100345.55;;;39.52;31.20
62847;BME280;49477;35.676;139.586;2023-07-16T07:25:43;100340.93;;;39.52;31.07
62847;BME280;49477;35.676;139.586;2023-07-16T07:28:17;100338.64;;;39.46;30.87
62847;BME280;49477;35.676;139.586;2023-07-16T07:30:46;100337.74;;;39.58;30.85
62847;BME280;49477;35.676;139.586;2023-07-16T07:33:15;100341.51;;;39.23;30.89
62847;BME280;49477;35.676;139.586;2023-07-16T07:35:45;100339.61;;;39.17;31.10
62847;BME280;49477;35.676;139.586;2023-07-16T07:38:15;100343.37;;;39.37;31.14
62847;BME280;49477;35.676;139.586;2023-07-16T07:40:44;100344.76;;;39.53;31.12
62847;BME280;49477;35.676;139.586;2023-07-16T07:43:14;100343.89;;;39.43;31.05
62847;BME280;49477;35.676;139.586;2023-07-16T07:45:43;100349.91;;;39.56;30.49
62847;BME280;49477;35.676;139.586;2023-07-16T07:48:13;100352.09;;;39.52;31.05
62847;BME280;49477;35.676;139.586;2023-07-16T07:50:42;100354.39;;;39.73;30.86
62847;BME280;49477;35.676;139.586;2023-07-16T07:53:12;100351.45;;;39.62;31.11
62847;BME280;49477;35.676;139.586;2023-07-16T07:55:41;100354.56;;;39.70;30.97
62847;BME280;49477;35.676;139.586;2023-07-16T07:58:11;100349.40;;;39.51;31.03
62847;BME280;49477;35.676;139.586;2023-07-16T08:00:40;100352.20;;;39.54;30.84
62847;BME280;49477;35.676;139.586;2023-07-16T08:03:09;100354.91;;;39.57;30.96
62847;BME280;49477;35.676;139.586;2023-07-16T08:05:38;100357.94;;;39.72;31.19
62847;BME280;49477;35.676;139.586;2023-07-16T08:08:07;100359.12;;;39.97;31.04
62847;BME280;49477;35.676;139.586;2023-07-16T08:10:37;100354.05;;;39.77;31.14
62847;BME280;49477;35.676;139.586;2023-07-16T08:13:06;100357.70;;;39.80;31.31
62847;BME280;49477;35.676;139.586;2023-07-16T08:15:35;100359.44;;;39.72;31.09
62847;BME280;49477;35.676;139.586;2023-07-16T08:18:04;100361.94;;;40.27;31.26
62847;BME280;49477;35.676;139.586;2023-07-16T08:20:35;100361.16;;;39.87;31.61
62847;BME280;49477;35.676;139.586;2023-07-16T08:23:04;100362.91;;;39.57;31.51
62847;BME280;49477;35.676;139.586;2023-07-16T08:25:39;100364.75;;;39.74;31.37
62847;BME280;49477;35.676;139.586;2023-07-16T08:28:08;100363.98;;;40.17;31.31
62847;BME280;49477;35.676;139.586;2023-07-16T08:30:38;100368.20;;;40.01;31.48
62847;BME280;49477;35.676;139.586;2023-07-16T08:33:08;100369.19;;;40.08;31.67
62847;BME280;49477;35.676;139.586;2023-07-16T08:35:37;100375.11;;;40.02;31.64
62847;BME280;49477;35.676;139.586;2023-07-16T08:38:08;100376.31;;;39.56;31.89
62847;BME280;49477;35.676;139.586;2023-07-16T08:40:37;100380.62;;;39.64;31.78
62847;BME280;49477;35.676;139.586;2023-07-16T08:43:07;100375.76;;;39.90;31.54
62847;BME280;49477;35.676;139.586;2023-07-16T08:45:40;100378.10;;;40.05;31.57
62847;BME280;49477;35.676;139.586;2023-07-16T08:48:10;100383.82;;;39.96;31.83
62847;BME280;49477;35.676;139.586;2023-07-16T08:50:40;100387.96;;;39.91;31.92
62847;BME280;49477;35.676;139.586;2023-07-16T08:53:16;100391.41;;;40.02;31.73
62847;BME280;49477;35.676;139.586;2023-07-16T08:55:46;100390.97;;;39.83;31.35
62847;BME280;49477;35.676;139.586;2023-07-16T08:58:17;100393.20;;;39.53;31.41
62847;BME280;49477;35.676;139.586;2023-07-16T09:00:47;100397.98;;;39.88;31.25
62847;BME280;49477;35.676;139.586;2023-07-16T09:03:17;100399.47;;;39.30;32.11
62847;BME280;49477;35.676;139.586;2023-07-16T09:05:51;100398.70;;;39.78;31.75
62847;BME280;49477;35.676;139.586;2023-07-16T09:08:21;100404.23;;;39.44;31.84
62847;BME280;49477;35.676;139.586;2023-07-16T09:10:56;100408.15;;;39.67;31.96
62847;BME280;49477;35.676;139.586;2023-07-16T09:13:26;100410.56;;;39.96;31.50
62847;BME280;49477;35.676;139.586;2023-07-16T09:15:56;100415.14;;;39.64;32.01
62847;BME280;49477;35.676;139.586;2023-07-16T09:18:27;100421.05;;;39.54;32.02
62847;BME280;49477;35.676;139.586;2023-07-16T09:20:59;100419.38;;;39.49;32.23
62847;BME280;49477;35.676;139.586;2023-07-16T09:23:29;100424.90;;;39.39;32.30
62847;BME280;49477;35.676;139.586;2023-07-16T09:25:59;100428.17;;;39.27;32.48
62847;BME280;49477;35.676;139.586;2023-07-16T09:28:29;100434.46;;;39.74;32.34
62847;BME280;49477;35.676;139.586;2023-07-16T09:31:04;100436.99;;;39.56;32.35
62847;BME280;49477;35.676;139.586;2023-07-16T09:33:36;100443.42;;;39.64;32.33
62847;BME280;49477;35.676;139.586;2023-07-16T09:36:07;100446.81;;;39.35;32.38
62847;BME280;49477;35.676;139.586;2023-07-16T09:38:37;100443.89;;;39.81;32.36
62847;BME280;49477;35.676;139.586;2023-07-16T09:41:07;100449.04;;;39.46;32.45
62847;BME280;49477;35.676;139.586;2023-07-16T09:43:37;100449.75;;;39.40;32.68
62847;BME280;49477;35.676;139.586;2023-07-16T09:46:06;100455.22;;;39.64;32.56
62847;BME280;49477;35.676;139.586;2023-07-16T09:48:36;100452.32;;;39.30;32.67
62847;BME280;49477;35.676;139.586;2023-07-16T09:51:09;100457.45;;;39.32;32.89
62847;BME280;49477;35.676;139.586;2023-07-16T09:53:41;100454.15;;;39.56;32.56
62847;BME280;49477;35.676;139.586;2023-07-16T09:56:13;100451.13;;;39.61;32.84
62847;BME280;49477;35.676;139.586;2023-07-16T09:58:43;100448.43;;;39.49;32.77
62847;BME280;49477;35.676;139.586;2023-07-16T10:01:15;100451.49;;;39.42;32.90
62847;BME280;49477;35.676;139.586;2023-07-16T10:03:50;100456.55;;;39.28;33.07
62847;BME280;49477;35.676;139.586;2023-07-16T10:06:19;100459.71;;;39.20;33.01
62847;BME280;49477;35.676;139.586;2023-07-16T10:08:56;100465.04;;;39.22;33.02
62847;BME280;49477;35.676;139.586;2023-07-16T10:11:27;100467.03;;;39.41;33.03
62847;BME280;49477;35.676;139.586;2023-07-16T10:13:58;100467.41;;;39.45;33.00
62847;BME280;49477;35.676;139.586;2023-07-16T10:16:27;100468.65;;;39.11;33.14
62847;BME280;49477;35.676;139.586;2023-07-16T10:18:59;100466.30;;;39.45;33.06
62847;BME280;49477;35.676;139.586;2023-07-16T10:21:29;100468.89;;;39.19;33.33
62847;BME280;49477;35.676;139.586;2023-07-16T10:24:15;100468.46;;;39.29;33.14
62847;BME280;49477;35.676;139.586;2023-07-16T10:26:45;100473.07;;;39.27;33.27
62847;BME280;49477;35.676;139.586;2023-07-16T10:29:16;100481.37;;;39.25;33.35
62847;BME280;49477;35.676;139.586;2023-07-16T10:31:47;100483.39;;;38.84;33.68
62847;BME280;49477;35.676;139.586;2023-07-16T10:34:21;100481.10;;;38.72;34.07
62847;BME280;49477;35.676;139.586;2023-07-16T10:36:52;100479.95;;;38.40;34.46
62847;BME280;49477;35.676;139.586;2023-07-16T10:39:21;100480.08;;;38.04;34.39
62847;BME280;49477;35.676;139.586;2023-07-16T10:41:50;100481.82;;;38.75;34.13
62847;BME280;49477;35.676;139.586;2023-07-16T10:44:21;100487.81;;;38.11;34.58
62847;BME280;49477;35.676;139.586;2023-07-16T10:46:52;100490.03;;;38.50;34.42
62847;BME280;49477;35.676;139.586;2023-07-16T10:49:29;100493.84;;;37.92;34.75
62847;BME280;49477;35.676;139.586;2023-07-16T10:52:00;100496.89;;;37.92;34.80
62847;BME280;49477;35.676;139.586;2023-07-16T10:54:29;100503.43;;;38.15;34.53
62847;BME280;49477;35.676;139.586;2023-07-16T10:56:59;100509.92;;;38.08;34.94
62847;BME280;49477;35.676;139.586;2023-07-16T10:59:30;100515.70;;;38.24;34.72
62847;BME280;49477;35.676;139.586;2023-07-16T11:02:00;100520.20;;;37.95;34.76
62847;BME280;49477;35.676;139.586;2023-07-16T11:04:35;100527.39;;;37.93;34.71
62847;BME280;49477;35.676;139.586;2023-07-16T11:07:13;100531.97;;;37.98;35.01
62847;BME280;49477;35.676;139.586;2023-07-16T11:09:44;100540.67;;;37.98;34.95
62847;BME280;49477;35.676;139.586;2023-07-16T11:12:16;100550.05;;;38.21;34.91
62847;BME280;49477;35.676;139.586;2023-07-16T11:14:47;100556.16;;;38.20;34.93
62847;BME280;49477;35.676;139.586;2023-07-16T11:17:19;100565.15;;;37.65;34.86
62847;BME280;49477;35.676;139.586;2023-07-16T11:19:51;100569.76;;;38.03;34.98
62847;BME280;49477;35.676;139.586;2023-07-16T11:22:25;100573.39;;;37.61;34.95
62847;BME280;49477;35.676;139.586;2023-07-16T11:24:55;100578.31;;;38.20;34.82
62847;BME280;49477;35.676;139.586;2023-07-16T11:27:27;100578.41;;;37.39;34.99
62847;BME280;49477;35.676;139.586;2023-07-16T11:29:58;100581.70;;;37.57;35.10
62847;BME280;49477;35.676;139.586;2023-07-16T11:32:35;100588.77;;;37.67;35.12
62847;BME280;49477;35.676;139.586;2023-07-16T11:35:06;100595.03;;;37.65;35.33
62847;BME280;49477;35.676;139.586;2023-07-16T11:37:36;100598.26;;;37.70;35.22
62847;BME280;49477;35.676;139.586;2023-07-16T11:40:07;100603.20;;;37.64;35.56
62847;BME280;49477;35.676;139.586;2023-07-16T11:42:39;100604.76;;;37.79;35.34
62847;BME280;49477;35.676;139.586;2023-07-16T11:45:17;100607.45;;;37.65;35.36
62847;BME280;49477;35.676;139.586;2023-07-16T11:47:47;100608.15;;;37.47;35.57
62847;BME280;49477;35.676;139.586;2023-07-16T11:50:17;100615.16;;;37.00;35.43
62847;BME280;49477;35.676;139.586;2023-07-16T11:52:54;100617.81;;;37.31;35.37
62847;BME280;49477;35.676;139.586;2023-07-16T11:55:23;100620.80;;;36.99;35.41
62847;BME280;49477;35.676;139.586;2023-07-16T11:57:53;100624.14;;;37.42;35.41
62847;BME280;49477;35.676;139.586;2023-07-16T12:00:22;100629.00;;;36.74;35.62
62847;BME280;49477;35.676;139.586;2023-07-16T12:02:51;100634.29;;;37.30;35.46
62847;BME280;49477;35.676;139.586;2023-07-16T12:05:21;100637.90;;;37.41;35.47
62847;BME280;49477;35.676;139.586;2023-07-16T12:07:51;100639.34;;;37.21;35.68
62847;BME280;49477;35.676;139.586;2023-07-16T12:10:21;100640.36;;;37.15;35.70
62847;BME280;49477;35.676;139.586;2023-07-16T12:12:50;100639.45;;;37.09;35.87
62847;BME280;49477;35.676;139.586;2023-07-16T12:15:19;100641.24;;;36.74;36.09
62847;BME280;49477;35.676;139.586;2023-07-16T12:17:49;100639.18;;;36.86;36.17
62847;BME280;49477;35.676;139.586;2023-07-16T12:20:18;100635.56;;;36.40;36.43
62847;BME280;49477;35.676;139.586;2023-07-16T12:22:48;100638.00;;;36.80;36.42
62847;BME280;49477;35.676;139.586;2023-07-16T12:25:20;100643.75;;;36.23;36.93
62847;BME280;49477;35.676;139.586;2023-07-16T12:27:49;100644.62;;;36.59;36.84
62847;BME280;49477;35.676;139.586;2023-07-16T12:30:18;100643.61;;;36.02;37.04
62847;BME280;49477;35.676;139.586;2023-07-16T12:32:48;100649.90;;;36.81;37.07
62847;BME280;49477;35.676;139.586;2023-07-16T12:35:16;100656.75;;;36.31;37.01
62847;BME280;49477;35.676;139.586;2023-07-16T12:37:46;100664.01;;;36.76;36.97
62847;BME280;49477;35.676;139.586;2023-07-16T12:40:16;100671.50;;;36.21;36.98
62847;BME280;49477;35.676;139.586;2023-07-16T12:42:45;100676.89;;;36.45;37.04
62847;BME280;49477;35.676;139.586;2023-07-16T12:45:14;100679.98;;;36.64;37.09